sensor_id;sensor_type;location;lat;lon;timestamp;P1;durP1;ratioP1;P2;durP2;ratioP2
19951;SDS011;10137;49.406;19.484;2023-06-10T00:01:29;10.03;;;7.93;;
19951;SDS011;10137;49.406;19.484;2023-06-10T00:04:06;11.73;;;7.80;;
19951;SDS011;10137;49.406;19.484;2023-06-10T00:06:37;10.13;;;7.83;;
19951;SDS011;10137;49.406;19.484;2023-06-10T00:09:12;9.73;;;7.90;;
19951;SDS011;10137;49.406;19.484;2023-06-10T00:11:47;9.73;;;7.97;;
19951;SDS011;10137;49.406;19.484;2023-06-10T00:14:20;10.83;;;8.07;;
19951;SDS011;10137;49.406;19.484;2023-06-10T00:16:48;10.23;;;7.87;;
19951;SDS011;10137;49.406;19.484;2023-06-10T00:19:19;11.50;;;8.00;;
19951;SDS011;10137;49.406;19.484;2023-06-10T00:21:50;9.23;;;7.57;;
19951;SDS011;10137;49.406;19.484;2023-06-10T00:24:21;11.67;;;7.67;;
19951;SDS011;10137;49.406;19.484;2023-06-10T00:26:50;11.43;;;8.20;;
19951;SDS011;10137;49.406;19.484;2023-06-10T00:29:19;12.00;;;7.97;;
19951;SDS011;10137;49.406;19.484;2023-06-10T00:31:50;10.27;;;7.77;;
19951;SDS011;10137;49.406;19.484;2023-06-10T00:34:24;11.73;;;7.97;;
19951;SDS011;10137;49.406;19.484;2023-06-10T00:36:51;11.00;;;7.90;;
19951;SDS011;10137;49.406;19.484;2023-06-10T00:39:18;11.93;;;8.90;;
19951;SDS011;10137;49.406;19.484;2023-06-10T00:41:47;9.67;;;8.00;;
19951;SDS011;10137;49.406;19.484;2023-06-10T00:44:23;11.60;;;7.47;;
19951;SDS011;10137;49.406;19.484;2023-06-10T00:46:53;10.40;;;8.23;;
19951;SDS011;10137;49.406;19.484;2023-06-10T00:49:22;10.53;;;7.43;;
19951;SDS011;10137;49.406;19.484;2023-06-10T00:51:51;11.23;;;7.90;;
19951;SDS011;10137;49.406;19.484;2023-06-10T00:54:25;9.73;;;8.00;;
19951;SDS011;10137;49.406;19.484;2023-06-10T00:56:53;8.47;;;7.00;;
19951;SDS011;10137;49.406;19.484;2023-06-10T00:59:21;10.63;;;7.60;;
19951;SDS011;10137;49.406;19.484;2023-06-10T01:02:03;10.43;;;7.60;;
19951;SDS011;10137;49.406;19.484;2023-06-10T01:04:31;11.03;;;7.73;;
19951;SDS011;10137;49.406;19.484;2023-06-10T01:07:00;13.47;;;7.87;;
19951;SDS011;10137;49.406;19.484;2023-06-10T01:09:41;10.33;;;7.80;;
19951;SDS011;10137;49.406;19.484;2023-06-10T01:12:19;9.90;;;7.47;;
19951;SDS011;10137;49.406;19.484;2023-06-10T01:14:59;9.87;;;7.33;;
19951;SDS011;10137;49.406;19.484;2023-06-10T01:17:30;9.70;;;7.13;;
19951;SDS011;10137;49.406;19.484;2023-06-10T01:19:59;10.17;;;7.87;;
19951;SDS011;10137;49.406;19.484;2023-06-10T01:22:40;10.53;;;7.67;;
19951;SDS011;10137;49.406;19.484;2023-06-10T01:25:08;11.50;;;7.20;;
19951;SDS011;10137;49.406;19.484;2023-06-10T01:27:40;8.63;;;7.13;;
19951;SDS011;10137;49.406;19.484;2023-06-10T01:30:12;10.40;;;7.17;;
19951;SDS011;10137;49.406;19.484;2023-06-10T01:32:44;10.00;;;7.47;;
19951;SDS011;10137;49.406;19.484;2023-06-10T01:35:15;10.63;;;7.77;;
19951;SDS011;10137;49.406;19.484;2023-06-10T01:37:49;9.43;;;7.60;;
19951;SDS011;10137;49.406;19.484;2023-06-10T01:40:23;8.63;;;6.83;;
19951;SDS011;10137;49.406;19.484;2023-06-10T01:42:53;12.33;;;8.00;;
19951;SDS011;10137;49.406;19.484;2023-06-10T01:45:20;11.33;;;7.47;;
19951;SDS011;10137;49.406;19.484;2023-06-10T01:47:49;10.10;;;7.47;;
19951;SDS011;10137;49.406;19.484;2023-06-10T01:50:18;14.20;;;7.93;;
19951;SDS011;10137;49.406;19.484;2023-06-10T01:52:52;9.27;;;7.60;;
19951;SDS011;10137;49.406;19.484;2023-06-10T01:55:22;10.40;;;7.80;;
19951;SDS011;10137;49.406;19.484;2023-06-10T01:57:53;8.70;;;6.97;;
19951;SDS011;10137;49.406;19.484;2023-06-10T02:00:22;10.37;;;7.60;;
19951;SDS011;10137;49.406;19.484;2023-06-10T02:02:52;9.17;;;7.13;;
19951;SDS011;10137;49.406;19.484;2023-06-10T02:05:22;9.90;;;7.43;;
19951;SDS011;10137;49.406;19.484;2023-06-10T02:07:55;14.07;;;7.87;;
19951;SDS011;10137;49.406;19.484;2023-06-10T02:10:24;9.93;;;7.47;;
19951;SDS011;10137;49.406;19.484;2023-06-10T02:12:52;11.23;;;7.33;;
19951;SDS011;10137;49.406;19.484;2023-06-10T02:15:21;11.03;;;7.60;;
19951;SDS011;10137;49.406;19.484;2023-06-10T02:17:52;10.13;;;7.40;;
19951;SDS011;10137;49.406;19.484;2023-06-10T02:20:25;8.50;;;6.63;;
19951;SDS011;10137;49.406;19.484;2023-06-10T02:22:55;8.07;;;6.77;;
19951;SDS011;10137;49.406;19.484;2023-06-10T02:25:23;10.93;;;6.97;;
19951;SDS011;10137;49.406;19.484;2023-06-10T02:27:51;9.90;;;6.37;;
19951;SDS011;10137;49.406;19.484;2023-06-10T02:30:18;7.27;;;5.90;;
19951;SDS011;10137;49.406;19.484;2023-06-10T02:32:48;10.57;;;6.53;;
19951;SDS011;10137;49.406;19.484;2023-06-10T02:35:17;7.47;;;5.67;;
19951;SDS011;10137;49.406;19.484;2023-06-10T02:37:45;6.83;;;5.73;;
19951;SDS011;10137;49.406;19.484;2023-06-10T02:40:21;7.97;;;5.50;;
19951;SDS011;10137;49.406;19.484;2023-06-10T02:42:50;6.87;;;5.20;;
19951;SDS011;10137;49.406;19.484;2023-06-10T02:45:16;7.67;;;5.70;;
19951;SDS011;10137;49.406;19.484;2023-06-10T02:47:45;7.17;;;5.40;;
19951;SDS011;10137;49.406;19.484;2023-06-10T02:50:16;11.60;;;6.07;;
19951;SDS011;10137;49.406;19.484;2023-06-10T02:52:45;9.80;;;6.07;;
19951;SDS011;10137;49.406;19.484;2023-06-10T02:55:13;8.30;;;6.10;;
19951;SDS011;10137;49.406;19.484;2023-06-10T02:57:43;11.40;;;5.27;;
19951;SDS011;10137;49.406;19.484;2023-06-10T03:00:14;8.47;;;5.20;;
19951;SDS011;10137;49.406;19.484;2023-06-10T03:02:46;5.60;;;4.97;;
19951;SDS011;10137;49.406;19.484;2023-06-10T03:05:18;7.33;;;5.20;;
19951;SDS011;10137;49.406;19.484;2023-06-10T03:07:47;8.67;;;6.10;;
19951;SDS011;10137;49.406;19.484;2023-06-10T03:10:17;9.30;;;5.33;;
19951;SDS011;10137;49.406;19.484;2023-06-10T03:12:46;7.47;;;5.20;;
19951;SDS011;10137;49.406;19.484;2023-06-10T03:15:14;7.93;;;5.27;;
19951;SDS011;10137;49.406;19.484;2023-06-10T03:17:46;6.53;;;5.17;;
19951;SDS011;10137;49.406;19.484;2023-06-10T03:20:17;8.43;;;5.20;;
19951;SDS011;10137;49.406;19.484;2023-06-10T03:22:45;6.17;;;5.37;;
19951;SDS011;10137;49.406;19.484;2023-06-10T03:25:14;6.13;;;5.37;;
19951;SDS011;10137;49.406;19.484;2023-06-10T03:27:46;8.03;;;5.27;;
19951;SDS011;10137;49.406;19.484;2023-06-10T03:30:29;6.83;;;5.40;;
19951;SDS011;10137;49.406;19.484;2023-06-10T03:32:57;7.40;;;4.83;;
19951;SDS011;10137;49.406;19.484;2023-06-10T03:35:26;7.03;;;4.43;;
19951;SDS011;10137;49.406;19.484;2023-06-10T03:37:53;9.43;;;5.03;;
19951;SDS011;10137;49.406;19.484;2023-06-10T03:40:22;7.37;;;4.30;;
19951;SDS011;10137;49.406;19.484;2023-06-10T03:42:52;5.53;;;4.30;;
19951;SDS011;10137;49.406;19.484;2023-06-10T03:45:23;7.67;;;4.40;;
19951;SDS011;10137;49.406;19.484;2023-06-10T03:47:53;4.60;;;4.10;;
19951;SDS011;10137;49.406;19.484;2023-06-10T03:50:22;6.97;;;4.70;;
19951;SDS011;10137;49.406;19.484;2023-06-10T03:52:51;7.83;;;4.63;;
19951;SDS011;10137;49.406;19.484;2023-06-10T03:55:19;4.33;;;3.90;;
19951;SDS011;10137;49.406;19.484;2023-06-10T03:57:49;9.00;;;4.73;;
19951;SDS011;10137;49.406;19.484;2023-06-10T04:00:23;6.20;;;4.80;;
19951;SDS011;10137;49.406;19.484;2023-06-10T04:02:55;5.50;;;4.47;;
19951;SDS011;10137;49.406;19.484;2023-06-10T04:05:25;6.40;;;4.17;;
19951;SDS011;10137;49.406;19.484;2023-06-10T04:07:53;9.47;;;4.70;;
19951;SDS011;10137;49.406;19.484;2023-06-10T04:10:50;9.57;;;4.87;;
19951;SDS011;10137;49.406;19.484;2023-06-10T04:13:18;8.23;;;4.57;;
19951;SDS011;10137;49.406;19.484;2023-06-10T04:15:48;6.17;;;4.47;;
19951;SDS011;10137;49.406;19.484;2023-06-10T04:18:20;5.70;;;4.80;;
19951;SDS011;10137;49.406;19.484;2023-06-10T04:20:50;7.63;;;4.63;;
19951;SDS011;10137;49.406;19.484;2023-06-10T04:23:19;8.43;;;4.77;;
19951;SDS011;10137;49.406;19.484;2023-06-10T04:25:49;9.40;;;5.63;;
19951;SDS011;10137;49.406;19.484;2023-06-10T04:28:20;7.47;;;5.17;;
19951;SDS011;10137;49.406;19.484;2023-06-10T04:30:50;5.83;;;4.73;;
19951;SDS011;10137;49.406;19.484;2023-06-10T04:33:21;7.13;;;5.00;;
19951;SDS011;10137;49.406;19.484;2023-06-10T04:35:48;8.10;;;4.67;;
19951;SDS011;10137;49.406;19.484;2023-06-10T04:38:16;7.90;;;4.90;;
19951;SDS011;10137;49.406;19.484;2023-06-10T04:40:45;8.67;;;4.97;;
19951;SDS011;10137;49.406;19.484;2023-06-10T04:43:15;6.27;;;4.93;;
19951;SDS011;10137;49.406;19.484;2023-06-10T04:45:45;8.53;;;5.27;;
19951;SDS011;10137;49.406;19.484;2023-06-10T04:48:20;7.67;;;5.00;;
19951;SDS011;10137;49.406;19.484;2023-06-10T04:50:52;8.37;;;5.03;;
19951;SDS011;10137;49.406;19.484;2023-06-10T04:53:23;10.83;;;5.53;;
19951;SDS011;10137;49.406;19.484;2023-06-10T04:55:53;6.37;;;5.53;;
19951;SDS011;10137;49.406;19.484;2023-06-10T04:58:21;7.43;;;5.40;;
19951;SDS011;10137;49.406;19.484;2023-06-10T05:00:50;7.10;;;5.70;;
19951;SDS011;10137;49.406;19.484;2023-06-10T05:03:22;9.27;;;5.83;;
19951;SDS011;10137;49.406;19.484;2023-06-10T05:05:53;9.97;;;6.37;;
19951;SDS011;10137;49.406;19.484;2023-06-10T05:08:22;8.03;;;6.27;;
19951;SDS011;10137;49.406;19.484;2023-06-10T05:10:53;8.97;;;6.40;;
19951;SDS011;10137;49.406;19.484;2023-06-10T05:13:24;11.63;;;6.83;;
19951;SDS011;10137;49.406;19.484;2023-06-10T05:15:56;7.83;;;6.67;;
19951;SDS011;10137;49.406;19.484;2023-06-10T05:18:30;10.03;;;6.73;;
19951;SDS011;10137;49.406;19.484;2023-06-10T05:20:58;6.90;;;5.90;;
19951;SDS011;10137;49.406;19.484;2023-06-10T05:23:26;8.80;;;6.73;;
19951;SDS011;10137;49.406;19.484;2023-06-10T05:25:58;8.07;;;6.73;;
19951;SDS011;10137;49.406;19.484;2023-06-10T05:28:26;8.07;;;6.10;;
19951;SDS011;10137;49.406;19.484;2023-06-10T05:30:53;7.70;;;6.23;;
19951;SDS011;10137;49.406;19.484;2023-06-10T05:33:22;9.83;;;6.80;;
19951;SDS011;10137;49.406;19.484;2023-06-10T05:36:00;8.27;;;6.17;;
19951;SDS011;10137;49.406;19.484;2023-06-10T05:38:28;8.23;;;6.00;;
19951;SDS011;10137;49.406;19.484;2023-06-10T05:40:59;7.93;;;5.40;;
19951;SDS011;10137;49.406;19.484;2023-06-10T05:43:28;6.57;;;5.47;;
19951;SDS011;10137;49.406;19.484;2023-06-10T05:45:56;10.70;;;5.80;;
19951;SDS011;10137;49.406;19.484;2023-06-10T05:48:26;6.67;;;5.47;;
19951;SDS011;10137;49.406;19.484;2023-06-10T05:50:58;5.80;;;4.80;;
19951;SDS011;10137;49.406;19.484;2023-06-10T05:53:26;5.80;;;5.00;;
19951;SDS011;10137;49.406;19.484;2023-06-10T05:55:55;9.07;;;5.43;;
19951;SDS011;10137;49.406;19.484;2023-06-10T05:58:25;6.07;;;5.07;;
19951;SDS011;10137;49.406;19.484;2023-06-10T06:00:53;6.13;;;4.90;;
19951;SDS011;10137;49.406;19.484;2023-06-10T06:03:23;9.93;;;4.97;;
19951;SDS011;10137;49.406;19.484;2023-06-10T06:05:50;9.07;;;5.00;;
19951;SDS011;10137;49.406;19.484;2023-06-10T06:08:20;6.77;;;5.30;;
19951;SDS011;10137;49.406;19.484;2023-06-10T06:10:52;6.53;;;5.83;;
19951;SDS011;10137;49.406;19.484;2023-06-10T06:13:20;12.50;;;5.87;;
19951;SDS011;10137;49.406;19.484;2023-06-10T06:15:48;7.80;;;5.80;;
19951;SDS011;10137;49.406;19.484;2023-06-10T06:18:17;7.67;;;5.67;;
19951;SDS011;10137;49.406;19.484;2023-06-10T06:20:45;6.83;;;5.57;;
19951;SDS011;10137;49.406;19.484;2023-06-10T06:23:14;8.17;;;6.20;;
19951;SDS011;10137;49.406;19.484;2023-06-10T06:25:45;7.53;;;6.00;;
19951;SDS011;10137;49.406;19.484;2023-06-10T06:28:16;7.20;;;5.50;;
19951;SDS011;10137;49.406;19.484;2023-06-10T06:30:47;8.27;;;5.67;;
19951;SDS011;10137;49.406;19.484;2023-06-10T06:33:15;8.43;;;5.27;;
19951;SDS011;10137;49.406;19.484;2023-06-10T06:35:44;6.07;;;5.23;;
19951;SDS011;10137;49.406;19.484;2023-06-10T06:38:12;7.90;;;5.70;;
19951;SDS011;10137;49.406;19.484;2023-06-10T06:40:40;10.47;;;6.20;;
19951;SDS011;10137;49.406;19.484;2023-06-10T06:43:10;7.20;;;5.53;;
19951;SDS011;10137;49.406;19.484;2023-06-10T06:45:38;7.70;;;5.20;;
19951;SDS011;10137;49.406;19.484;2023-06-10T06:48:08;6.43;;;4.47;;
19951;SDS011;10137;49.406;19.484;2023-06-10T06:50:37;6.50;;;5.40;;
19951;SDS011;10137;49.406;19.484;2023-06-10T06:53:07;6.83;;;4.77;;
19951;SDS011;10137;49.406;19.484;2023-06-10T06:55:40;7.03;;;4.90;;
19951;SDS011;10137;49.406;19.484;2023-06-10T06:58:13;6.33;;;4.77;;
19951;SDS011;10137;49.406;19.484;2023-06-10T07:00:42;8.47;;;5.00;;
19951;SDS011;10137;49.406;19.484;2023-06-10T07:03:09;6.07;;;4.87;;
19951;SDS011;10137;49.406;19.484;2023-06-10T07:05:47;6.10;;;4.87;;
19951;SDS011;10137;49.406;19.484;2023-06-10T07:08:18;7.53;;;5.50;;
19951;SDS011;10137;49.406;19.484;2023-06-10T07:10:48;6.53;;;5.03;;
19951;SDS011;10137;49.406;19.484;2023-06-10T07:13:17;6.67;;;5.40;;
19951;SDS011;10137;49.406;19.484;2023-06-10T07:15:47;9.83;;;5.63;;
19951;SDS011;10137;49.406;19.484;2023-06-10T07:18:16;6.93;;;5.03;;
19951;SDS011;10137;49.406;19.484;2023-06-10T07:20:46;8.00;;;5.17;;
19951;SDS011;10137;49.406;19.484;2023-06-10T07:23:14;8.83;;;6.13;;
19951;SDS011;10137;49.406;19.484;2023-06-10T07:25:47;7.80;;;5.40;;
19951;SDS011;10137;49.406;19.484;2023-06-10T07:28:28;8.13;;;5.47;;
19951;SDS011;10137;49.406;19.484;2023-06-10T07:30:57;6.53;;;5.30;;
19951;SDS011;10137;49.406;19.484;2023-06-10T07:33:27;8.23;;;5.43;;
19951;SDS011;10137;49.406;19.484;2023-06-10T07:35:56;6.90;;;4.73;;
19951;SDS011;10137;49.406;19.484;2023-06-10T07:38:29;5.87;;;4.97;;
19951;SDS011;10137;49.406;19.484;2023-06-10T07:40:58;5.33;;;4.80;;
19951;SDS011;10137;49.406;19.484;2023-06-10T07:43:29;6.63;;;4.80;;
19951;SDS011;10137;49.406;19.484;2023-06-10T07:46:07;8.67;;;4.87;;
19951;SDS011;10137;49.406;19.484;2023-06-10T07:48:37;5.70;;;4.83;;
19951;SDS011;10137;49.406;19.484;2023-06-10T07:51:13;6.70;;;4.60;;
19951;SDS011;10137;49.406;19.484;2023-06-10T07:53:42;5.33;;;4.23;;
19951;SDS011;10137;49.406;19.484;2023-06-10T07:56:11;5.17;;;4.33;;
19951;SDS011;10137;49.406;19.484;2023-06-10T07:58:44;5.27;;;4.77;;
19951;SDS011;10137;49.406;19.484;2023-06-10T08:01:12;8.77;;;5.50;;
19951;SDS011;10137;49.406;19.484;2023-06-10T08:03:40;9.93;;;4.93;;
19951;SDS011;10137;49.406;19.484;2023-06-10T08:06:12;8.40;;;5.23;;
19951;SDS011;10137;49.406;19.484;2023-06-10T08:08:39;8.60;;;5.57;;
19951;SDS011;10137;49.406;19.484;2023-06-10T08:11:11;7.40;;;5.50;;
19951;SDS011;10137;49.406;19.484;2023-06-10T08:13:47;7.03;;;5.60;;
19951;SDS011;10137;49.406;19.484;2023-06-10T08:16:16;8.57;;;5.50;;
19951;SDS011;10137;49.406;19.484;2023-06-10T08:18:47;6.93;;;5.57;;
19951;SDS011;10137;49.406;19.484;2023-06-10T08:21:18;6.83;;;5.50;;
19951;SDS011;10137;49.406;19.484;2023-06-10T08:23:52;7.83;;;5.33;;
19951;SDS011;10137;49.406;19.484;2023-06-10T08:26:21;6.03;;;4.93;;
19951;SDS011;10137;49.406;19.484;2023-06-10T08:28:53;8.68;;;5.47;;
19951;SDS011;10137;49.406;19.484;2023-06-10T08:31:22;8.25;;;5.45;;
19951;SDS011;10137;49.406;19.484;2023-06-10T08:33:53;11.25;;;5.88;;
19951;SDS011;10137;49.406;19.484;2023-06-10T08:36:21;7.53;;;5.22;;
19951;SDS011;10137;49.406;19.484;2023-06-10T08:38:49;7.53;;;5.50;;
19951;SDS011;10137;49.406;19.484;2023-06-10T08:41:17;7.07;;;5.07;;
19951;SDS011;10137;49.406;19.484;2023-06-10T08:43:51;9.43;;;5.47;;
19951;SDS011;10137;49.406;19.484;2023-06-10T08:46:28;9.05;;;5.53;;
19951;SDS011;10137;49.406;19.484;2023-06-10T08:49:00;9.57;;;5.60;;
19951;SDS011;10137;49.406;19.484;2023-06-10T08:51:30;8.27;;;5.97;;
19951;SDS011;10137;49.406;19.484;2023-06-10T08:54:00;6.80;;;5.45;;
19951;SDS011;10137;49.406;19.484;2023-06-10T08:56:33;6.57;;;5.18;;
19951;SDS011;10137;49.406;19.484;2023-06-10T08:59:13;8.43;;;5.32;;
19951;SDS011;10137;49.406;19.484;2023-06-10T09:01:45;8.10;;;4.78;;
19951;SDS011;10137;49.406;19.484;2023-06-10T09:04:15;6.03;;;4.82;;
19951;SDS011;10137;49.406;19.484;2023-06-10T09:06:48;6.32;;;4.70;;
19951;SDS011;10137;49.406;19.484;2023-06-10T09:09:19;8.02;;;5.10;;
19951;SDS011;10137;49.406;19.484;2023-06-10T09:11:58;7.63;;;5.03;;
19951;SDS011;10137;49.406;19.484;2023-06-10T09:14:27;9.00;;;5.32;;
19951;SDS011;10137;49.406;19.484;2023-06-10T09:16:55;6.63;;;5.00;;
19951;SDS011;10137;49.406;19.484;2023-06-10T09:19:25;7.00;;;5.03;;
19951;SDS011;10137;49.406;19.484;2023-06-10T09:21:57;7.78;;;5.13;;
19951;SDS011;10137;49.406;19.484;2023-06-10T09:24:28;8.23;;;4.85;;
19951;SDS011;10137;49.406;19.484;2023-06-10T09:27:03;10.63;;;5.55;;
19951;SDS011;10137;49.406;19.484;2023-06-10T09:29:33;8.10;;;4.63;;
19951;SDS011;10137;49.406;19.484;2023-06-10T09:32:13;5.45;;;3.85;;
19951;SDS011;10137;49.406;19.484;2023-06-10T09:34:41;6.55;;;4.75;;
19951;SDS011;10137;49.406;19.484;2023-06-10T09:37:10;5.57;;;4.60;;
19951;SDS011;10137;49.406;19.484;2023-06-10T09:39:43;6.43;;;5.07;;
19951;SDS011;10137;49.406;19.484;2023-06-10T09:42:15;9.07;;;5.72;;
19951;SDS011;10137;49.406;19.484;2023-06-10T09:44:52;14.40;;;9.45;;
19951;SDS011;10137;49.406;19.484;2023-06-10T09:47:21;36.75;;;13.20;;
19951;SDS011;10137;49.406;19.484;2023-06-10T09:49:52;17.20;;;8.75;;
19951;SDS011;10137;49.406;19.484;2023-06-10T09:52:23;16.88;;;8.52;;
19951;SDS011;10137;49.406;19.484;2023-06-10T09:54:53;17.38;;;8.68;;
19951;SDS011;10137;49.406;19.484;2023-06-10T09:57:30;14.50;;;9.40;;
19951;SDS011;10137;49.406;19.484;2023-06-10T10:00:03;17.15;;;9.68;;
19951;SDS011;10137;49.406;19.484;2023-06-10T10:02:32;14.75;;;9.88;;
19951;SDS011;10137;49.406;19.484;2023-06-10T10:05:13;13.70;;;10.30;;
19951;SDS011;10137;49.406;19.484;2023-06-10T10:07:43;15.80;;;10.18;;
19951;SDS011;10137;49.406;19.484;2023-06-10T10:10:12;18.25;;;10.75;;
19951;SDS011;10137;49.406;19.484;2023-06-10T10:12:42;15.82;;;11.40;;
19951;SDS011;10137;49.406;19.484;2023-06-10T10:15:15;15.55;;;11.43;;
19951;SDS011;10137;49.406;19.484;2023-06-10T10:17:52;14.55;;;11.40;;
19951;SDS011;10137;49.406;19.484;2023-06-10T10:20:24;15.07;;;11.25;;
19951;SDS011;10137;49.406;19.484;2023-06-10T10:22:58;16.77;;;12.40;;
19951;SDS011;10137;49.406;19.484;2023-06-10T10:25:32;17.92;;;12.07;;
19951;SDS011;10137;49.406;19.484;2023-06-10T10:28:06;12.43;;;10.85;;
19951;SDS011;10137;49.406;19.484;2023-06-10T10:30:39;16.90;;;11.80;;
19951;SDS011;10137;49.406;19.484;2023-06-10T10:33:09;15.20;;;11.60;;
19951;SDS011;10137;49.406;19.484;2023-06-10T10:35:42;18.70;;;11.63;;
19951;SDS011;10137;49.406;19.484;2023-06-10T10:38:12;15.65;;;11.57;;
19951;SDS011;10137;49.406;19.484;2023-06-10T10:40:40;17.17;;;12.45;;
19951;SDS011;10137;49.406;19.484;2023-06-10T10:43:19;16.80;;;12.40;;
19951;SDS011;10137;49.406;19.484;2023-06-10T10:45:49;15.73;;;12.98;;
19951;SDS011;10137;49.406;19.484;2023-06-10T10:48:28;19.08;;;12.73;;
19951;SDS011;10137;49.406;19.484;2023-06-10T10:51:01;16.02;;;12.60;;
19951;SDS011;10137;49.406;19.484;2023-06-10T10:53:31;18.73;;;13.48;;
19951;SDS011;10137;49.406;19.484;2023-06-10T10:55:59;20.90;;;14.10;;
19951;SDS011;10137;49.406;19.484;2023-06-10T10:58:32;19.80;;;14.35;;
19951;SDS011;10137;49.406;19.484;2023-06-10T11:01:09;18.00;;;14.25;;
19951;SDS011;10137;49.406;19.484;2023-06-10T11:03:42;18.00;;;14.52;;
19951;SDS011;10137;49.406;19.484;2023-06-10T11:06:13;21.20;;;14.73;;
19951;SDS011;10137;49.406;19.484;2023-06-10T11:08:46;21.50;;;14.07;;
19951;SDS011;10137;49.406;19.484;2023-06-10T11:11:20;17.77;;;14.20;;
19951;SDS011;10137;49.406;19.484;2023-06-10T11:16:41;22.77;;;14.13;;
19951;SDS011;10137;49.406;19.484;2023-06-10T11:19:10;16.85;;;13.80;;
19951;SDS011;10137;49.406;19.484;2023-06-10T11:22:02;17.92;;;13.77;;
19951;SDS011;10137;49.406;19.484;2023-06-10T11:24:34;17.95;;;13.70;;
19951;SDS011;10137;49.406;19.484;2023-06-10T11:27:20;18.98;;;15.23;;
19951;SDS011;10137;49.406;19.484;2023-06-10T11:29:57;25.25;;;17.67;;
19951;SDS011;10137;49.406;19.484;2023-06-10T11:32:29;25.48;;;18.15;;
19951;SDS011;10137;49.406;19.484;2023-06-10T11:34:58;23.38;;;17.08;;
19951;SDS011;10137;49.406;19.484;2023-06-10T11:37:27;21.98;;;16.08;;
19951;SDS011;10137;49.406;19.484;2023-06-10T11:39:55;21.55;;;15.75;;
19951;SDS011;10137;49.406;19.484;2023-06-10T11:42:27;22.02;;;15.77;;
19951;SDS011;10137;49.406;19.484;2023-06-10T11:44:55;19.38;;;14.60;;
19951;SDS011;10137;49.406;19.484;2023-06-10T11:47:24;26.38;;;16.90;;
19951;SDS011;10137;49.406;19.484;2023-06-10T11:49:56;21.92;;;16.50;;
19951;SDS011;10137;49.406;19.484;2023-06-10T11:52:28;21.52;;;16.42;;
19951;SDS011;10137;49.406;19.484;2023-06-10T11:54:58;21.25;;;15.60;;
19951;SDS011;10137;49.406;19.484;2023-06-10T11:57:26;18.35;;;15.05;;
19951;SDS011;10137;49.406;19.484;2023-06-10T11:59:55;21.02;;;14.82;;
19951;SDS011;10137;49.406;19.484;2023-06-10T12:02:23;21.63;;;15.52;;
19951;SDS011;10137;49.406;19.484;2023-06-10T12:04:51;21.95;;;15.98;;
19951;SDS011;10137;49.406;19.484;2023-06-10T12:07:21;22.77;;;16.88;;
19951;SDS011;10137;49.406;19.484;2023-06-10T12:09:58;22.77;;;17.25;;
19951;SDS011;10137;49.406;19.484;2023-06-10T12:12:26;20.88;;;17.10;;
19951;SDS011;10137;49.406;19.484;2023-06-10T12:14:59;19.65;;;16.52;;
19951;SDS011;10137;49.406;19.484;2023-06-10T12:17:38;21.58;;;16.40;;
19951;SDS011;10137;49.406;19.484;2023-06-10T12:20:06;22.42;;;15.80;;
19951;SDS011;10137;49.406;19.484;2023-06-10T12:22:43;23.15;;;17.02;;
19951;SDS011;10137;49.406;19.484;2023-06-10T12:25:11;17.15;;;14.32;;
19951;SDS011;10137;49.406;19.484;2023-06-10T12:27:49;17.38;;;14.80;;
19951;SDS011;10137;49.406;19.484;2023-06-10T12:30:19;15.83;;;13.40;;
19951;SDS011;10137;49.406;19.484;2023-06-10T12:32:50;16.10;;;13.38;;
19951;SDS011;10137;49.406;19.484;2023-06-10T12:35:21;16.27;;;12.93;;
19951;SDS011;10137;49.406;19.484;2023-06-10T12:37:59;18.20;;;13.25;;
19951;SDS011;10137;49.406;19.484;2023-06-10T12:40:29;16.55;;;13.60;;
19951;SDS011;10137;49.406;19.484;2023-06-10T12:43:06;18.20;;;13.57;;
19951;SDS011;10137;49.406;19.484;2023-06-10T12:45:38;16.80;;;12.85;;
19951;SDS011;10137;49.406;19.484;2023-06-10T12:48:08;15.88;;;14.15;;
19951;SDS011;10137;49.406;19.484;2023-06-10T12:50:41;16.33;;;14.53;;
19951;SDS011;10137;49.406;19.484;2023-06-10T12:53:11;15.68;;;13.98;;
19951;SDS011;10137;49.406;19.484;2023-06-10T12:55:42;18.98;;;15.38;;
19951;SDS011;10137;49.406;19.484;2023-06-10T12:58:13;24.70;;;15.88;;
19951;SDS011;10137;49.406;19.484;2023-06-10T13:00:42;20.15;;;15.57;;
19951;SDS011;10137;49.406;19.484;2023-06-10T13:03:10;17.87;;;14.67;;
19951;SDS011;10137;49.406;19.484;2023-06-10T13:05:39;18.50;;;14.87;;
19951;SDS011;10137;49.406;19.484;2023-06-10T13:08:17;19.85;;;15.38;;
19951;SDS011;10137;49.406;19.484;2023-06-10T13:10:49;18.02;;;13.55;;
19951;SDS011;10137;49.406;19.484;2023-06-10T13:13:17;13.17;;;11.00;;
19951;SDS011;10137;49.406;19.484;2023-06-10T13:15:50;11.32;;;7.55;;
19951;SDS011;10137;49.406;19.484;2023-06-10T13:18:20;23.73;;;7.70;;
19951;SDS011;10137;49.406;19.484;2023-06-10T13:20:49;9.85;;;7.35;;
19951;SDS011;10137;49.406;19.484;2023-06-10T13:23:18;9.27;;;6.77;;
19951;SDS011;10137;49.406;19.484;2023-06-10T13:25:49;12.00;;;7.47;;
19951;SDS011;10137;49.406;19.484;2023-06-10T13:28:19;10.43;;;6.27;;
19951;SDS011;10137;49.406;19.484;2023-06-10T13:30:47;10.47;;;6.37;;
19951;SDS011;10137;49.406;19.484;2023-06-10T13:33:15;7.37;;;5.83;;
19951;SDS011;10137;49.406;19.484;2023-06-10T13:35:45;6.17;;;5.33;;
19951;SDS011;10137;49.406;19.484;2023-06-10T13:38:16;6.90;;;5.87;;
19951;SDS011;10137;49.406;19.484;2023-06-10T13:40:46;9.43;;;5.23;;
19951;SDS011;10137;49.406;19.484;2023-06-10T13:43:15;5.67;;;5.00;;
19951;SDS011;10137;49.406;19.484;2023-06-10T13:45:43;7.23;;;5.30;;
19951;SDS011;10137;49.406;19.484;2023-06-10T13:48:14;7.93;;;4.73;;
19951;SDS011;10137;49.406;19.484;2023-06-10T13:50:43;8.93;;;5.60;;
19951;SDS011;10137;49.406;19.484;2023-06-10T13:53:14;7.43;;;5.30;;
19951;SDS011;10137;49.406;19.484;2023-06-10T13:55:42;6.00;;;5.07;;
19951;SDS011;10137;49.406;19.484;2023-06-10T13:58:14;6.07;;;5.40;;
19951;SDS011;10137;49.406;19.484;2023-06-10T14:00:44;8.37;;;5.47;;
19951;SDS011;10137;49.406;19.484;2023-06-10T14:03:13;9.80;;;5.60;;
19951;SDS011;10137;49.406;19.484;2023-06-10T14:05:44;9.20;;;6.73;;
19951;SDS011;10137;49.406;19.484;2023-06-10T14:08:12;7.73;;;5.60;;
19951;SDS011;10137;49.406;19.484;2023-06-10T14:10:40;8.73;;;6.83;;
19951;SDS011;10137;49.406;19.484;2023-06-10T14:13:10;9.70;;;6.13;;
19951;SDS011;10137;49.406;19.484;2023-06-10T14:15:38;6.70;;;5.37;;
19951;SDS011;10137;49.406;19.484;2023-06-10T14:18:06;9.00;;;6.00;;
19951;SDS011;10137;49.406;19.484;2023-06-10T14:20:35;8.03;;;5.77;;
19951;SDS011;10137;49.406;19.484;2023-06-10T14:23:03;6.90;;;5.33;;
19951;SDS011;10137;49.406;19.484;2023-06-10T14:25:34;5.77;;;5.00;;
19951;SDS011;10137;49.406;19.484;2023-06-10T14:28:02;6.60;;;5.20;;
19951;SDS011;10137;49.406;19.484;2023-06-10T14:30:33;6.73;;;5.43;;
19951;SDS011;10137;49.406;19.484;2023-06-10T14:33:02;7.03;;;4.90;;
19951;SDS011;10137;49.406;19.484;2023-06-10T14:35:33;9.00;;;5.13;;
19951;SDS011;10137;49.406;19.484;2023-06-10T14:38:04;6.57;;;5.50;;
19951;SDS011;10137;49.406;19.484;2023-06-10T14:40:34;6.27;;;5.30;;
19951;SDS011;10137;49.406;19.484;2023-06-10T14:43:06;8.23;;;5.30;;
19951;SDS011;10137;49.406;19.484;2023-06-10T14:45:37;7.00;;;5.40;;
19951;SDS011;10137;49.406;19.484;2023-06-10T14:48:05;8.30;;;5.10;;
19951;SDS011;10137;49.406;19.484;2023-06-10T14:50:34;7.73;;;5.40;;